createdAt,value
2019-04-03T00:00:39.944Z,13.30
2019-04-03T00:03:09.723Z,13.30
2019-04-03T00:05:39.096Z,13.30
2019-04-03T00:08:08.687Z,13.30
2019-04-03T00:10:38.410Z,13.30
2019-04-03T00:13:10.416Z,13.30
2019-04-03T00:15:38.779Z,13.20
2019-04-03T00:18:08.181Z,13.20
2019-04-03T00:20:37.554Z,13.20
2019-04-03T00:23:06.963Z,13.20
2019-04-03T00:25:36.526Z,13.20
2019-04-03T00:28:05.912Z,13.10
2019-04-03T00:30:35.311Z,13.10
2019-04-03T00:33:04.701Z,13.10
2019-04-03T00:35:34.194Z,13.10
2019-04-03T00:38:03.620Z,13.00
2019-04-03T00:40:33.003Z,13.00
2019-04-03T00:43:02.463Z,13.00
2019-04-03T00:45:31.800Z,13.00
2019-04-03T00:48:01.318Z,13.00
2019-04-03T00:50:30.680Z,13.00
2019-04-03T00:53:00.055Z,13.00
2019-04-03T00:55:29.459Z,13.00
2019-04-03T00:57:58.835Z,13.00
2019-04-03T01:00:28.342Z,12.90
2019-04-03T01:02:59.003Z,12.90
2019-04-03T01:05:29.060Z,12.90
2019-04-03T01:07:59.807Z,12.90
2019-04-03T01:10:29.902Z,12.90
2019-04-03T01:13:00.004Z,12.90
2019-04-03T01:15:31.635Z,12.90
2019-04-03T01:18:04.172Z,13.00
2019-04-03T01:20:32.443Z,13.00
2019-04-03T01:23:01.863Z,13.00
2019-04-03T01:25:31.270Z,13.00
2019-04-03T01:28:00.818Z,13.10
2019-04-03T01:30:30.348Z,13.10
2019-04-03T01:32:59.718Z,13.10
2019-04-03T01:35:29.079Z,13.00
2019-04-03T01:37:58.573Z,13.00
2019-04-03T01:40:27.882Z,13.00
2019-04-03T01:42:57.277Z,13.00
2019-04-03T01:45:26.664Z,13.00
2019-04-03T01:47:58.238Z,12.90
2019-04-03T01:50:28.725Z,12.90
2019-04-03T01:52:58.084Z,12.80
2019-04-03T01:55:27.642Z,12.70
2019-04-03T01:57:57.125Z,12.60
2019-04-03T02:00:26.462Z,12.60
2019-04-03T02:02:55.858Z,12.60
2019-04-03T02:05:25.239Z,12.70
2019-04-03T02:07:54.652Z,12.70
2019-04-03T02:10:24.430Z,12.60
2019-04-03T02:12:53.820Z,12.60
2019-04-03T02:15:23.219Z,12.50
2019-04-03T02:17:54.203Z,12.50
2019-04-03T02:20:26.121Z,12.50
2019-04-03T02:22:54.699Z,12.50
2019-04-03T02:25:24.190Z,12.50
2019-04-03T02:27:53.579Z,12.40
2019-04-03T02:30:22.984Z,12.40
2019-04-03T02:32:55.247Z,12.40
2019-04-03T02:35:23.697Z,12.40
2019-04-03T02:37:53.582Z,12.40
2019-04-03T02:40:22.973Z,12.30
2019-04-03T02:42:52.432Z,12.30
2019-04-03T02:45:24.050Z,12.20
2019-04-03T02:47:53.285Z,12.20
2019-04-03T02:50:26.238Z,12.10
2019-04-03T02:52:58.019Z,12.00
2019-04-03T02:55:26.947Z,11.90
2019-04-03T02:57:56.375Z,11.90
2019-04-03T03:00:25.978Z,11.90
2019-04-03T03:02:55.355Z,12.00
2019-04-03T03:05:27.494Z,12.00
2019-04-03T03:07:55.857Z,12.00
2019-04-03T03:10:25.530Z,12.00
2019-04-03T03:13:00.205Z,12.10
2019-04-03T03:15:28.858Z,12.10
2019-04-03T03:17:58.552Z,12.10
2019-04-03T03:20:29.437Z,12.10
2019-04-03T03:22:59.653Z,12.10
2019-04-03T03:25:32.424Z,12.10
2019-04-03T03:28:01.024Z,12.20
2019-04-03T03:30:42.129Z,12.20
2019-04-03T03:33:24.247Z,12.20
2019-04-03T03:35:40.118Z,12.20
2019-04-03T03:38:07.033Z,12.10
2019-04-03T03:40:37.474Z,12.10
2019-04-03T03:43:07.043Z,12.00
2019-04-03T03:45:37.060Z,12.00
2019-04-03T03:48:09.399Z,12.00
2019-04-03T03:50:38.237Z,12.00
2019-04-03T03:53:11.496Z,12.00
2019-04-03T03:55:39.363Z,12.10
2019-04-03T03:58:12.537Z,12.00
2019-04-03T04:00:39.984Z,11.90
2019-04-03T04:03:11.184Z,11.90
2019-04-03T04:05:40.956Z,11.80
2019-04-03T04:08:11.521Z,11.70
2019-04-03T04:10:41.152Z,11.70
2019-04-03T04:13:13.352Z,11.60
2019-04-03T04:15:41.840Z,11.60
2019-04-03T04:18:13.851Z,11.60
2019-04-03T04:20:42.556Z,11.50
2019-04-03T04:23:12.167Z,11.50
2019-04-03T04:25:43.547Z,11.50
2019-04-03T04:28:13.758Z,11.50
2019-04-03T04:30:45.647Z,11.50
2019-04-03T04:33:16.938Z,11.60
2019-04-03T04:35:46.429Z,11.60
2019-04-03T04:38:16.385Z,11.60
2019-04-03T04:40:45.935Z,11.60
2019-04-03T04:43:15.287Z,11.60
2019-04-03T04:45:44.693Z,11.60
2019-04-03T04:48:16.285Z,11.60
2019-04-03T04:50:45.160Z,11.60
2019-04-03T04:53:14.502Z,11.60
2019-04-03T04:55:43.868Z,11.50
2019-04-03T04:58:13.267Z,11.40
2019-04-03T05:00:42.920Z,11.40
2019-04-03T05:03:12.331Z,11.30
2019-04-03T05:05:41.734Z,11.30
2019-04-03T05:08:11.132Z,11.30
2019-04-03T05:10:40.613Z,11.30
2019-04-03T05:13:10.040Z,11.30
2019-04-03T05:15:39.819Z,11.30
2019-04-03T05:18:09.207Z,11.30
2019-04-03T05:20:38.605Z,11.40
2019-04-03T05:23:08.203Z,11.40
2019-04-03T05:25:37.744Z,11.40
2019-04-03T05:28:07.104Z,11.40
2019-04-03T05:30:37.889Z,11.40
2019-04-03T05:33:07.558Z,11.40
2019-04-03T05:35:37.731Z,11.50
2019-04-03T05:38:07.098Z,11.50
2019-04-03T05:40:36.659Z,11.60
2019-04-03T05:43:06.033Z,11.60
2019-04-03T05:45:35.730Z,11.60
2019-04-03T05:48:05.388Z,11.60
2019-04-03T05:50:36.639Z,11.60
2019-04-03T05:53:06.564Z,11.70
2019-04-03T05:55:36.080Z,11.80
2019-04-03T05:58:05.570Z,11.80
2019-04-03T06:00:37.502Z,11.80
2019-04-03T06:09:12.330Z,12.10
2019-04-03T06:11:41.758Z,12.10
2019-04-03T06:14:11.101Z,12.20
2019-04-03T06:16:40.589Z,12.30
2019-04-03T06:19:09.986Z,12.40
2019-04-03T06:21:40.362Z,12.50
2019-04-03T06:24:09.763Z,12.60
2019-04-03T06:26:39.138Z,12.70
2019-04-03T06:29:09.631Z,12.80
2019-04-03T06:31:38.980Z,13.00
2019-04-03T06:34:08.609Z,13.00
2019-04-03T06:36:38.214Z,13.10
2019-04-03T06:39:08.670Z,13.20
2019-04-03T06:41:38.139Z,13.20
2019-04-03T06:44:07.624Z,13.30
2019-04-03T06:46:37.000Z,13.30
2019-04-03T06:49:08.585Z,13.40
2019-04-03T06:51:37.446Z,13.40
2019-04-03T06:54:07.854Z,13.40
2019-04-03T06:56:42.140Z,13.50
2019-04-03T06:59:11.105Z,13.50
2019-04-03T07:01:40.778Z,13.50
2019-04-03T07:04:10.212Z,13.50
2019-04-03T07:06:39.704Z,13.50
2019-04-03T07:09:21.780Z,13.50
2019-04-03T07:11:43.286Z,13.50
2019-04-03T07:14:11.851Z,13.60
2019-04-03T07:16:41.246Z,13.60
2019-04-03T07:19:10.993Z,13.70
2019-04-03T07:21:40.602Z,13.70
2019-04-03T07:24:09.993Z,13.80
2019-04-03T07:26:39.376Z,13.80
2019-04-03T07:29:11.295Z,13.90
2019-04-03T07:31:39.813Z,13.90
2019-04-03T07:34:09.201Z,13.90
2019-04-03T07:36:41.163Z,14.00
2019-04-03T07:39:11.006Z,14.00
2019-04-03T07:41:41.653Z,13.90
2019-04-03T07:44:11.191Z,14.00
2019-04-03T07:46:40.570Z,14.00
2019-04-03T07:49:10.481Z,14.10
2019-04-03T07:51:39.987Z,14.30
2019-04-03T07:54:09.435Z,14.40
2019-04-03T07:56:39.071Z,14.40
2019-04-03T07:59:08.537Z,14.50
2019-04-03T08:01:38.776Z,14.60
2019-04-03T08:04:08.950Z,14.70
2019-04-03T08:06:38.396Z,14.80
2019-04-03T08:09:10.250Z,14.80
2019-04-03T08:11:39.787Z,14.90
2019-04-03T08:14:09.973Z,14.80
2019-04-03T08:16:42.186Z,14.80
2019-04-03T08:19:10.655Z,14.80
2019-04-03T08:21:40.051Z,14.90
2019-04-03T08:24:09.569Z,15.00
2019-04-03T08:26:39.157Z,15.20
2019-04-03T08:29:08.564Z,15.20
2019-04-03T08:31:37.973Z,15.20
2019-04-03T08:34:15.594Z,15.30
2019-04-03T08:36:39.496Z,15.40
2019-04-03T08:39:09.592Z,15.60
2019-04-03T08:41:39.044Z,15.70
2019-04-03T08:44:09.204Z,15.90
2019-04-03T08:46:38.706Z,15.90
2019-04-03T08:49:08.421Z,16.00
2019-04-03T08:51:37.929Z,16.00
2019-04-03T08:54:09.516Z,15.90
2019-04-03T08:56:38.386Z,15.90
2019-04-03T08:59:07.761Z,15.90
2019-04-03T09:01:37.400Z,16.00
2019-04-03T09:04:06.823Z,16.10
2019-04-03T09:06:36.290Z,16.20
2019-04-03T09:09:09.320Z,16.20
2019-04-03T09:11:38.711Z,16.20
2019-04-03T09:14:08.119Z,16.30
2019-04-03T09:16:37.887Z,16.40
2019-04-03T09:19:09.576Z,16.50
2019-04-03T09:21:38.311Z,16.60
2019-04-03T09:24:07.731Z,16.70
2019-04-03T09:37:00.162Z,17.10
2019-04-03T09:39:29.607Z,17.20
2019-04-03T09:41:59.042Z,17.20
2019-04-03T09:44:28.463Z,17.20
2019-04-03T09:46:57.824Z,17.30
2019-04-03T09:49:27.227Z,17.20
2019-04-03T09:51:57.001Z,17.30
2019-04-03T09:54:28.376Z,17.30
2019-04-03T09:57:03.812Z,17.30
2019-04-03T09:59:28.803Z,17.40
2019-04-03T10:01:58.175Z,17.50
2019-04-03T10:04:27.609Z,17.60
2019-04-03T10:06:57.205Z,17.60
2019-04-03T10:09:26.839Z,17.60
2019-04-03T10:11:56.481Z,17.60
2019-04-03T10:14:28.187Z,17.60
2019-04-03T10:16:57.288Z,17.70
2019-04-03T10:19:26.971Z,17.70
2019-04-03T10:21:56.384Z,17.80
2019-04-03T10:24:25.780Z,17.90
2019-04-03T10:26:55.207Z,17.90
2019-04-03T10:29:24.591Z,18.00
2019-04-03T10:31:55.750Z,18.10
2019-04-03T10:34:25.016Z,18.20
2019-04-03T10:36:54.407Z,18.30
2019-04-03T10:39:23.837Z,18.20
2019-04-03T10:41:53.259Z,18.20
2019-04-03T10:44:22.680Z,18.20
2019-04-03T10:46:52.064Z,18.30
2019-04-03T10:49:21.647Z,18.40
2019-04-03T10:51:51.012Z,18.40
2019-04-03T10:54:21.926Z,18.50
2019-04-03T10:56:51.447Z,18.60
2019-04-03T10:59:20.839Z,18.80
2019-04-03T11:01:50.231Z,18.90
2019-04-03T11:04:19.786Z,19.00
2019-04-03T11:06:49.293Z,19.10
2019-04-03T11:09:18.840Z,19.20
2019-04-03T11:11:48.534Z,19.10
2019-04-03T11:14:18.006Z,19.10
2019-04-03T11:16:47.351Z,19.20
2019-04-03T11:19:19.435Z,19.30
2019-04-03T11:21:47.715Z,19.30
2019-04-03T11:24:17.147Z,19.40
2019-04-03T11:26:46.538Z,19.60
2019-04-03T11:29:16.060Z,19.80
2019-04-03T11:31:45.435Z,19.80
2019-04-03T11:34:17.176Z,19.90
2019-04-03T11:36:46.051Z,20.00
2019-04-03T11:39:16.262Z,20.00
2019-04-03T11:41:46.079Z,20.10
2019-04-03T11:44:15.527Z,20.10
2019-04-03T11:46:44.959Z,20.20
2019-04-03T11:49:14.572Z,20.40
2019-04-03T11:51:43.967Z,20.50
2019-04-03T11:54:13.349Z,20.60
2019-04-03T11:56:44.914Z,20.70
2019-04-03T11:59:13.916Z,20.80
2019-04-03T12:01:43.279Z,20.80
2019-04-03T12:04:13.464Z,20.80
2019-04-03T12:06:43.195Z,20.90
2019-04-03T12:09:12.750Z,20.80
2019-04-03T12:11:42.287Z,20.80
2019-04-03T12:14:11.681Z,20.70
2019-04-03T12:16:41.490Z,20.60
2019-04-03T12:19:10.911Z,20.60
2019-04-03T12:21:40.820Z,20.60
2019-04-03T12:24:10.589Z,20.60
2019-04-03T12:26:42.482Z,20.60
2019-04-03T12:29:11.266Z,20.60
2019-04-03T12:31:40.640Z,20.60
2019-04-03T12:34:10.006Z,20.50
2019-04-03T12:36:39.340Z,20.60
2019-04-03T12:39:13.620Z,20.60
2019-04-03T12:41:43.615Z,20.60
2019-04-03T12:44:13.474Z,20.70
2019-04-03T12:46:42.933Z,20.80
2019-04-03T12:49:12.758Z,20.90
2019-04-03T12:51:42.321Z,20.90
2019-04-03T12:54:13.265Z,20.90
2019-04-03T12:56:42.737Z,21.00
2019-04-03T12:59:12.901Z,21.10
2019-04-03T13:01:42.355Z,21.20
2019-04-03T13:04:12.175Z,21.30
2019-04-03T13:06:42.390Z,21.30
2019-04-03T13:09:12.235Z,21.30
2019-04-03T13:11:41.911Z,21.20
2019-04-03T13:14:22.459Z,21.30
2019-04-03T13:16:42.643Z,21.40
2019-04-03T13:19:14.894Z,21.50
2019-04-03T13:21:43.222Z,21.70
2019-04-03T13:24:12.698Z,21.80
2019-04-03T13:26:42.099Z,21.80
2019-04-03T13:29:11.816Z,21.80
2019-04-03T13:31:41.805Z,21.80
2019-04-03T13:34:11.841Z,21.80
2019-04-03T13:36:41.226Z,21.70
2019-04-03T13:39:10.943Z,21.60
2019-04-03T13:41:42.484Z,21.50
2019-04-03T13:44:11.519Z,21.50
2019-04-03T13:46:40.987Z,21.40
2019-04-03T13:49:10.443Z,21.40
2019-04-03T13:51:39.860Z,21.50
2019-04-03T13:54:09.488Z,21.50
2019-04-03T13:56:42.145Z,21.60
2019-04-03T13:59:09.896Z,21.60
2019-04-03T14:01:40.185Z,21.60
2019-04-03T14:04:10.634Z,21.50
2019-04-03T14:06:39.989Z,21.50
2019-04-03T14:09:09.717Z,21.50
2019-04-03T14:11:39.075Z,21.40
2019-04-03T14:14:08.880Z,21.30
2019-04-03T14:16:38.222Z,21.30
2019-04-03T14:19:07.638Z,21.30
2019-04-03T14:21:37.045Z,21.30
2019-04-03T14:24:08.256Z,21.30
2019-04-03T14:26:37.656Z,21.20
2019-04-03T14:29:07.985Z,21.30
2019-04-03T14:31:38.261Z,21.40
2019-04-03T14:34:07.724Z,21.40
2019-04-03T14:36:37.163Z,21.30
2019-04-03T14:39:09.082Z,21.30
2019-04-03T14:41:38.881Z,21.30
2019-04-03T14:44:09.301Z,21.20
2019-04-03T14:46:39.226Z,21.00
2019-04-03T14:49:08.979Z,20.90
2019-04-03T14:51:38.690Z,20.80
2019-04-03T14:54:08.914Z,20.70
2019-04-03T14:56:38.328Z,20.70
2019-04-03T14:59:08.107Z,20.60
2019-04-03T15:01:37.499Z,20.60
2019-04-03T15:04:06.909Z,20.60
2019-04-03T15:06:36.283Z,20.70
2019-04-03T15:09:08.399Z,20.70
2019-04-03T15:11:38.243Z,20.60
2019-04-03T15:14:07.639Z,20.60
2019-04-03T15:16:37.385Z,20.60
2019-04-03T15:19:07.152Z,20.60
2019-04-03T15:21:36.531Z,20.60
2019-04-03T15:24:05.909Z,20.60
2019-04-03T15:26:35.589Z,20.50
2019-04-03T15:29:05.446Z,20.60
2019-04-03T15:31:34.867Z,20.50
2019-04-03T15:34:04.254Z,20.40
2019-04-03T15:36:35.856Z,20.30
2019-04-03T15:39:09.248Z,20.20
2019-04-03T15:41:39.187Z,20.00
2019-04-03T15:44:08.655Z,19.90
2019-04-03T15:46:38.246Z,19.80
2019-04-03T15:49:07.661Z,19.70
2019-04-03T15:51:38.841Z,19.60
2019-04-03T15:54:08.159Z,19.50
2019-04-03T15:56:37.700Z,19.50
2019-04-03T15:59:07.361Z,19.40
2019-04-03T16:01:37.113Z,19.40
2019-04-03T16:04:07.911Z,19.40
2019-04-03T16:06:37.295Z,19.40
2019-04-03T16:09:09.080Z,19.40
2019-04-03T16:11:38.496Z,19.40
2019-04-03T16:14:08.110Z,19.40
2019-04-03T16:16:37.453Z,19.40
2019-04-03T16:19:08.358Z,19.30
2019-04-03T16:21:38.275Z,19.30
2019-04-03T16:24:11.365Z,19.30
2019-04-03T16:26:39.211Z,19.20
2019-04-03T16:29:09.283Z,19.40
2019-04-03T16:31:38.666Z,19.40
2019-04-03T16:34:12.159Z,19.30
2019-04-03T16:36:39.540Z,19.30
2019-04-03T16:39:09.194Z,19.60
2019-04-03T16:41:38.917Z,19.90
2019-04-03T16:44:08.317Z,20.50
2019-04-03T16:46:37.783Z,21.00
2019-04-03T16:49:07.865Z,21.30
2019-04-03T16:51:38.078Z,21.20
2019-04-03T16:54:10.419Z,20.90
2019-04-03T16:56:39.468Z,20.60
2019-04-03T16:59:09.365Z,20.20
2019-04-03T17:01:38.698Z,19.90
2019-04-03T17:04:09.770Z,19.60
2019-04-03T17:06:39.518Z,19.30
2019-04-03T17:09:09.126Z,19.00
2019-04-03T17:11:38.551Z,18.80
2019-04-03T17:14:07.966Z,18.60
2019-04-03T17:16:38.283Z,18.40
2019-04-03T17:19:07.968Z,18.30
2019-04-03T17:21:39.024Z,18.20
2019-04-03T17:24:08.613Z,18.10
2019-04-03T17:26:47.822Z,18.00
2019-04-03T17:29:09.260Z,17.90
2019-04-03T17:31:38.754Z,17.70
2019-04-03T17:34:08.400Z,17.60
2019-04-03T17:36:37.896Z,17.50
2019-04-03T17:39:08.913Z,17.40
2019-04-03T17:41:38.634Z,17.30
2019-04-03T17:44:08.086Z,17.20
2019-04-03T17:46:39.889Z,17.10
2019-04-03T17:49:08.549Z,17.10
2019-04-03T17:51:37.905Z,17.00
2019-04-03T17:54:07.753Z,17.00
2019-04-03T17:56:37.676Z,16.90
2019-04-03T17:59:07.095Z,16.90
2019-04-03T18:01:37.731Z,16.80
2019-04-03T18:04:07.099Z,16.70
2019-04-03T18:06:36.474Z,16.70
2019-04-03T18:09:08.675Z,16.60
2019-04-03T18:11:38.241Z,16.60
2019-04-03T18:14:07.665Z,16.50
2019-04-03T18:16:37.058Z,16.40
2019-04-03T18:19:06.368Z,16.40
2019-04-03T18:21:35.754Z,16.40
2019-04-03T18:24:05.087Z,16.30
2019-04-03T18:26:34.499Z,16.30
2019-04-03T18:29:06.344Z,16.30
2019-04-03T18:31:34.993Z,16.20
2019-04-03T18:34:04.519Z,16.20
2019-04-03T18:36:33.920Z,16.00
2019-04-03T18:39:04.679Z,15.50
2019-04-03T18:41:34.062Z,14.70
2019-04-03T18:44:03.504Z,13.90
2019-04-03T18:46:36.317Z,13.20
2019-04-03T18:49:04.004Z,12.50
2019-04-03T18:51:36.415Z,11.90
2019-04-03T18:54:04.432Z,11.40
2019-04-03T18:56:33.739Z,11.10
2019-04-03T18:59:03.131Z,10.80
2019-04-03T19:01:33.155Z,10.50
2019-04-03T19:04:02.511Z,10.30
2019-04-03T19:06:31.917Z,10.10
2019-04-03T19:09:09.839Z,10.00
2019-04-03T19:11:34.406Z,9.90
2019-04-03T19:14:03.566Z,9.80
2019-04-03T19:16:43.526Z,9.70
2019-04-03T19:19:08.116Z,9.50
2019-04-03T19:21:35.167Z,9.40
2019-04-03T19:24:04.683Z,9.30
2019-04-03T19:26:34.061Z,9.20
2019-04-03T19:29:05.046Z,9.30
2019-04-03T19:31:34.483Z,9.30
2019-04-03T19:34:03.900Z,9.30
2019-04-03T19:36:33.319Z,9.20
2019-04-03T19:39:06.550Z,9.20
2019-04-03T19:41:35.805Z,9.10
2019-04-03T19:44:05.155Z,9.00
2019-04-03T19:46:34.564Z,9.00
2019-04-03T19:49:03.982Z,8.90
2019-04-03T19:51:33.348Z,8.90
2019-04-03T19:54:02.719Z,8.80
2019-04-03T19:56:33.060Z,8.80
2019-04-03T19:59:04.777Z,8.90
2019-04-03T20:01:33.501Z,8.80
2019-04-03T20:04:02.899Z,8.80
2019-04-03T20:06:32.538Z,8.70
2019-04-03T20:09:01.991Z,8.70
2019-04-03T20:11:31.373Z,8.70
2019-04-03T20:14:00.791Z,8.60
2019-04-03T20:16:30.218Z,8.70
2019-04-03T20:18:59.523Z,8.60
2019-04-03T20:21:28.924Z,8.60
2019-04-03T20:23:58.496Z,8.50
2019-04-03T20:26:27.895Z,8.50
2019-04-03T20:28:57.551Z,8.50
2019-04-03T20:31:26.983Z,8.50
2019-04-03T20:33:56.340Z,8.60
2019-04-03T20:36:25.719Z,8.50
2019-04-03T20:38:55.967Z,8.50
2019-04-03T20:41:26.103Z,8.50
2019-04-03T20:43:55.519Z,8.50
2019-04-03T20:46:24.953Z,8.50
2019-04-03T20:48:54.363Z,8.40
2019-04-03T20:51:23.735Z,8.40
2019-04-03T20:53:53.151Z,8.40
2019-04-03T20:56:22.518Z,8.40
2019-04-03T20:58:56.050Z,8.30
2019-04-03T21:01:22.984Z,8.20
2019-04-03T21:03:52.354Z,8.20
2019-04-03T21:06:21.662Z,8.10
2019-04-03T21:08:50.968Z,8.00
2019-04-03T21:11:20.446Z,8.00
2019-04-03T21:13:49.804Z,8.00
2019-04-03T21:16:19.205Z,8.00
2019-04-03T21:18:51.148Z,8.00
2019-04-03T21:21:19.727Z,8.00
2019-04-03T21:23:49.119Z,8.00
2019-04-03T21:26:18.516Z,8.00
2019-04-03T21:28:47.943Z,8.00
2019-04-03T21:31:17.311Z,8.00
2019-04-03T21:33:46.951Z,8.00
2019-04-03T21:36:16.355Z,7.90
2019-04-03T21:38:45.727Z,7.90
2019-04-03T21:41:15.119Z,7.70
2019-04-03T21:43:44.491Z,7.60
2019-04-03T21:46:13.927Z,7.50
2019-04-03T21:48:44.773Z,7.50
2019-04-03T21:51:14.556Z,7.50
2019-04-03T21:53:43.936Z,7.50
2019-04-03T21:56:13.319Z,7.40
2019-04-03T21:58:42.726Z,7.40
2019-04-03T22:01:20.977Z,7.40
2019-04-03T22:03:51.372Z,7.40
2019-04-03T22:06:21.090Z,7.40
2019-04-03T22:08:51.632Z,7.40
2019-04-03T22:11:21.146Z,7.40
2019-04-03T22:13:50.556Z,7.30
2019-04-03T22:16:20.575Z,7.30
2019-04-03T22:18:49.948Z,7.20
2019-04-03T22:21:19.337Z,7.20
2019-04-03T22:23:48.694Z,7.10
2019-04-03T22:26:18.083Z,7.10
2019-04-03T22:28:47.378Z,7.10
2019-04-03T22:31:16.781Z,7.00
2019-04-03T22:33:46.160Z,7.00
2019-04-03T22:36:15.551Z,7.00
2019-04-03T22:38:44.839Z,6.90
2019-04-03T22:41:14.217Z,6.90
2019-04-03T22:43:44.160Z,6.90
2019-04-03T22:46:14.629Z,7.00
2019-04-03T22:48:44.040Z,6.90
2019-04-03T22:51:13.420Z,7.00
2019-04-03T22:53:42.845Z,6.90
2019-04-03T22:56:12.219Z,7.00
2019-04-03T22:58:41.634Z,7.00
2019-04-03T23:01:10.999Z,7.00
2019-04-03T23:03:40.286Z,7.00
2019-04-03T23:06:09.620Z,7.00
2019-04-03T23:08:38.991Z,6.90
2019-04-03T23:11:08.415Z,6.90
2019-04-03T23:13:37.840Z,6.90
2019-04-03T23:16:07.255Z,6.90
2019-04-03T23:18:36.592Z,6.80
2019-04-03T23:21:06.030Z,6.90
2019-04-03T23:23:35.414Z,6.80
2019-04-03T23:26:04.949Z,6.80
2019-04-03T23:28:34.594Z,6.80
2019-04-03T23:31:04.034Z,6.80
2019-04-03T23:33:33.399Z,6.80
2019-04-03T23:36:02.804Z,6.80
2019-04-03T23:38:32.235Z,6.80
2019-04-03T23:41:01.578Z,6.90
2019-04-03T23:43:31.000Z,6.90
2019-04-03T23:46:00.386Z,7.00
2019-04-03T23:48:29.804Z,7.10
2019-04-03T23:50:59.191Z,7.20
2019-04-03T23:53:31.810Z,7.20
2019-04-03T23:55:59.640Z,7.30
2019-04-03T23:58:29.025Z,7.30
